createdAt,value
2018-03-31T00:00:44.376Z,999
2018-03-31T00:05:44.581Z,999
2018-03-31T00:10:44.604Z,998.8
2018-03-31T00:15:44.383Z,998.7
2018-03-31T00:20:44.575Z,998.6
2018-03-31T00:25:44.605Z,998.5
2018-03-31T00:30:44.333Z,998.6
2018-03-31T00:35:44.539Z,998.6
2018-03-31T00:40:44.355Z,998.6
2018-03-31T00:45:44.560Z,998.5
2018-03-31T00:50:44.296Z,998.5
2018-03-31T00:55:44.348Z,998.4
2018-03-31T01:00:47.654Z,998.4
2018-03-31T01:05:52.469Z,998.5
2018-03-31T01:10:47.385Z,998.5
2018-03-31T01:15:47.398Z,998.5
2018-03-31T01:20:47.582Z,998.4
2018-03-31T01:25:47.595Z,998.4
2018-03-31T01:30:47.516Z,998.4
2018-03-31T01:35:47.400Z,998.3
2018-03-31T01:40:47.600Z,998.2
2018-03-31T01:45:47.745Z,998
2018-03-31T01:50:47.777Z,998.1
2018-03-31T01:55:47.701Z,998.1
2018-03-31T02:00:47.677Z,998.4
2018-03-31T02:05:47.583Z,998.6
2018-03-31T02:10:47.849Z,998.8
2018-03-31T02:15:47.587Z,998.8
2018-03-31T02:20:47.592Z,999.1
2018-03-31T02:25:47.739Z,999.1
2018-03-31T02:30:47.570Z,999.1
2018-03-31T02:35:47.603Z,999.1
2018-03-31T02:40:47.824Z,999.2
2018-03-31T02:45:47.748Z,999.2
2018-03-31T02:50:47.615Z,999.2
2018-03-31T02:55:48.014Z,999.1
2018-03-31T03:00:47.712Z,999.2
2018-03-31T03:05:47.737Z,999.3
2018-03-31T03:10:47.631Z,999.3
2018-03-31T03:15:47.865Z,999.2
2018-03-31T03:20:47.797Z,999.3
2018-03-31T03:25:47.760Z,999.3
2018-03-31T03:30:47.819Z,999.4
2018-03-31T03:35:47.814Z,999.6
2018-03-31T03:40:47.851Z,999.6
2018-03-31T03:45:47.819Z,999.4
2018-03-31T03:50:47.821Z,999.3
2018-03-31T03:55:47.942Z,999.2
2018-03-31T04:00:47.842Z,999.3
2018-03-31T04:05:47.835Z,999.4
2018-03-31T04:10:48.019Z,999.4
2018-03-31T04:15:48.010Z,999.5
2018-03-31T04:20:47.786Z,999.3
2018-03-31T04:25:48.015Z,999.4
2018-03-31T04:30:48.052Z,999.3
2018-03-31T04:35:48.094Z,999.7
2018-03-31T04:40:48.019Z,999.3
2018-03-31T04:45:48.002Z,999.4
2018-03-31T04:50:48.078Z,999.4
2018-03-31T04:55:47.892Z,999.4
2018-03-31T05:00:48.014Z,999.6
2018-03-31T05:05:47.869Z,999.7
2018-03-31T05:10:47.852Z,999.9
2018-03-31T05:15:47.880Z,1000
2018-03-31T05:20:48.100Z,1000
2018-03-31T05:25:47.910Z,999.8
2018-03-31T05:30:47.835Z,999.8
2018-03-31T05:35:48.095Z,999.9
2018-03-31T05:40:48.242Z,999.9
2018-03-31T05:45:48.251Z,1000
2018-03-31T05:50:48.055Z,1000
2018-03-31T05:55:50.603Z,1000
2018-03-31T06:00:55.656Z,999.9
2018-03-31T06:05:50.730Z,999.8
2018-03-31T06:10:50.783Z,999.8
2018-03-31T06:15:50.605Z,999.9
2018-03-31T06:20:50.735Z,999.9
2018-03-31T06:25:50.729Z,999.9
2018-03-31T06:30:50.761Z,1000
2018-03-31T06:35:50.706Z,1000
2018-03-31T06:40:50.760Z,1000.1
2018-03-31T06:45:51.489Z,1000
2018-03-31T06:50:50.741Z,1000
2018-03-31T06:55:50.775Z,1000
2018-03-31T07:00:50.793Z,999.8
2018-03-31T07:05:50.755Z,999.8
2018-03-31T07:10:50.788Z,999.9
2018-03-31T07:15:50.746Z,999.8
2018-03-31T07:20:50.770Z,1000
2018-03-31T07:25:50.772Z,1000
2018-03-31T07:30:50.755Z,1000.1
2018-03-31T07:35:50.788Z,1000
2018-03-31T07:40:50.748Z,1000.1
2018-03-31T07:45:51.014Z,999.9
2018-03-31T07:50:50.793Z,999.8
2018-03-31T07:55:50.758Z,999.7
2018-03-31T08:00:50.815Z,999.8
2018-03-31T08:05:50.911Z,1000
2018-03-31T08:10:50.788Z,999.9
2018-03-31T08:15:51.014Z,999.9
2018-03-31T08:20:50.781Z,999.9
2018-03-31T08:25:50.791Z,999.6
2018-03-31T08:30:50.810Z,999.6
2018-03-31T08:35:50.818Z,999.6
2018-03-31T08:40:50.907Z,999.7
2018-03-31T08:45:51.008Z,999.7
2018-03-31T08:50:50.813Z,999.7
2018-03-31T08:55:50.996Z,999.7
2018-03-31T09:00:51.057Z,999.7
2018-03-31T09:05:50.811Z,999.7
2018-03-31T09:10:51.768Z,999.7
2018-03-31T09:15:50.831Z,999.7
2018-03-31T09:20:50.832Z,999.8
2018-03-31T09:25:50.848Z,999.5
2018-03-31T09:30:52.332Z,999.3
2018-03-31T09:35:50.822Z,999.2
2018-03-31T09:40:51.326Z,999.2
2018-03-31T09:45:50.845Z,999.1
2018-03-31T09:50:51.108Z,999.5
2018-03-31T09:55:52.318Z,999.4
2018-03-31T10:00:51.061Z,999.4
2018-03-31T10:05:51.024Z,999.5
2018-03-31T10:10:51.028Z,999.6
2018-03-31T10:15:51.048Z,999.7
2018-03-31T10:20:53.370Z,999.7
2018-03-31T10:25:53.612Z,999.7
2018-03-31T10:30:51.212Z,999.7
2018-03-31T10:35:51.161Z,999.8
2018-03-31T10:40:51.145Z,999.7
2018-03-31T10:45:51.140Z,999.8
2018-03-31T10:50:51.156Z,1000
2018-03-31T10:55:56.533Z,1000
2018-03-31T11:01:03.451Z,999.9
2018-03-31T11:05:56.218Z,999.6
2018-03-31T11:10:56.240Z,999.6
2018-03-31T11:15:56.248Z,999.7
2018-03-31T11:20:56.242Z,999.7
2018-03-31T11:25:56.291Z,999.9
2018-03-31T11:30:56.275Z,999.8
2018-03-31T11:35:56.279Z,999.6
2018-03-31T11:40:56.350Z,999.5
2018-03-31T11:45:56.262Z,999.6
2018-03-31T11:50:56.219Z,999.5
2018-03-31T11:55:56.278Z,999.5
2018-03-31T12:00:56.344Z,999.5
2018-03-31T12:05:56.322Z,999.6
2018-03-31T12:10:56.682Z,999.6
2018-03-31T12:15:56.325Z,999.5
2018-03-31T12:20:56.284Z,999.6
2018-03-31T12:25:56.295Z,999.5
2018-03-31T12:30:56.267Z,999.4
2018-03-31T12:35:56.328Z,999.6
2018-03-31T12:40:56.281Z,999.4
2018-03-31T12:45:56.332Z,999.4
2018-03-31T12:50:56.313Z,999.3
2018-03-31T12:55:56.334Z,999.2
2018-03-31T13:00:56.314Z,999.2
2018-03-31T13:05:59.694Z,999.1
2018-03-31T13:10:56.280Z,999
2018-03-31T13:15:56.359Z,999
2018-03-31T13:20:56.306Z,999.1
2018-03-31T13:25:56.335Z,999.2
2018-03-31T13:30:56.341Z,999.3
2018-03-31T13:35:56.342Z,999.2
2018-03-31T13:40:56.351Z,999.2
2018-03-31T13:45:59.586Z,999.1
2018-03-31T13:50:56.338Z,999.1
2018-03-31T13:55:56.356Z,999.1
2018-03-31T14:00:56.399Z,999
2018-03-31T14:05:56.450Z,998.9
2018-03-31T14:10:56.473Z,998.9
2018-03-31T14:15:56.463Z,998.9
2018-03-31T14:20:56.386Z,998.9
2018-03-31T14:25:56.380Z,998.9
2018-03-31T14:30:56.371Z,998.9
2018-03-31T14:35:56.425Z,998.9
2018-03-31T14:40:56.304Z,998.9
2018-03-31T14:45:57.291Z,998.9
2018-03-31T14:50:56.396Z,998.7
2018-03-31T14:55:56.347Z,998.6
2018-03-31T15:00:56.531Z,998.6
2018-03-31T15:05:56.506Z,998.6
2018-03-31T15:10:56.590Z,998.4
2018-03-31T15:15:56.486Z,998.7
2018-03-31T15:20:56.661Z,998.6
2018-03-31T15:25:56.533Z,998.5
2018-03-31T15:30:56.542Z,998.6
2018-03-31T15:35:56.800Z,998.6
2018-03-31T15:40:56.577Z,998.7
2018-03-31T15:45:56.873Z,998.9
2018-03-31T15:51:02.170Z,998.7
2018-03-31T15:55:57.096Z,998.7
2018-03-31T16:00:56.963Z,998.4
2018-03-31T16:05:57.520Z,998.3
2018-03-31T16:10:56.960Z,998.5
2018-03-31T16:15:56.986Z,998.4
2018-03-31T16:20:57.314Z,998.2
2018-03-31T16:25:57.167Z,998.3
2018-03-31T16:30:56.970Z,998.1
2018-03-31T16:35:57.184Z,998.5
2018-03-31T16:40:57.461Z,998.4
2018-03-31T16:45:57.368Z,998.4
2018-03-31T16:50:57.212Z,998.6
2018-03-31T16:55:57.164Z,998.5
2018-03-31T17:00:57.066Z,998.3
2018-03-31T17:05:57.140Z,998.1
2018-03-31T17:10:57.314Z,998
2018-03-31T17:15:56.987Z,998.1
2018-03-31T17:20:57.010Z,998.1
2018-03-31T17:25:57.158Z,997.9
2018-03-31T17:30:57.056Z,998
2018-03-31T17:35:57.164Z,998.2
2018-03-31T17:40:57.290Z,998.3
2018-03-31T17:45:57.092Z,998.5
2018-03-31T17:50:57.081Z,998.6
2018-03-31T17:55:57.160Z,998.6
2018-03-31T18:00:57.325Z,998.6
2018-03-31T18:05:57.057Z,998.8
2018-03-31T18:10:57.175Z,998.9
2018-03-31T18:15:57.190Z,998.8
2018-03-31T18:20:57.028Z,998.9
2018-03-31T18:25:57.213Z,998.8
2018-03-31T18:30:57.253Z,998.8
2018-03-31T18:35:57.295Z,998.8
2018-03-31T18:40:57.237Z,998.8
2018-03-31T18:45:57.049Z,998.8
2018-03-31T18:50:57.298Z,998.9
2018-03-31T18:55:57.096Z,998.8
2018-03-31T19:00:57.246Z,998.7
2018-03-31T19:05:57.074Z,998.8
2018-03-31T19:10:57.415Z,998.9
2018-03-31T19:15:57.250Z,998.9
2018-03-31T19:20:57.323Z,999
2018-03-31T19:25:57.326Z,999
2018-03-31T19:30:57.564Z,999.1
2018-03-31T19:35:57.541Z,999.1
2018-03-31T19:40:57.565Z,999.2
2018-03-31T19:45:57.596Z,999.2
2018-03-31T19:50:57.454Z,999.2
2018-03-31T19:55:57.373Z,999.3
2018-03-31T20:00:57.573Z,999.4
2018-03-31T20:05:57.600Z,999.4
2018-03-31T20:10:57.658Z,999.4
2018-03-31T20:15:57.516Z,999.3
2018-03-31T20:20:57.389Z,999.3
2018-03-31T20:25:57.484Z,999.3
2018-03-31T20:30:57.361Z,999.4
2018-03-31T20:36:03.246Z,999.5
2018-03-31T20:41:06.413Z,999.4
2018-03-31T20:46:00.409Z,999.5
2018-03-31T20:51:00.479Z,999.6
2018-03-31T20:56:00.273Z,999.5
2018-03-31T21:01:00.220Z,999.6
2018-03-31T21:06:00.296Z,999.6
2018-03-31T21:11:01.064Z,999.6
2018-03-31T21:16:00.308Z,999.7
2018-03-31T21:21:00.279Z,999.6
2018-03-31T21:26:00.214Z,999.7
2018-03-31T21:31:00.423Z,999.8
2018-03-31T21:36:00.264Z,999.8
2018-03-31T21:41:00.283Z,999.8
2018-03-31T21:46:00.301Z,999.8
2018-03-31T21:51:00.313Z,999.9
2018-03-31T21:56:00.500Z,1000
2018-03-31T22:01:00.274Z,999.9
2018-03-31T22:06:00.306Z,999.9
2018-03-31T22:11:00.496Z,1000
2018-03-31T22:16:00.518Z,1000.1
2018-03-31T22:21:00.432Z,1000.1
2018-03-31T22:26:00.321Z,1000.2
2018-03-31T22:31:00.279Z,1000.2
2018-03-31T22:36:00.294Z,1000.3
2018-03-31T22:41:00.354Z,1000.2
2018-03-31T22:46:00.308Z,1000.3
2018-03-31T22:51:00.336Z,1000.4
2018-03-31T22:56:00.372Z,1000.4
2018-03-31T23:01:00.313Z,1000.5
2018-03-31T23:06:00.309Z,1000.6
2018-03-31T23:11:00.322Z,1000.6
2018-03-31T23:16:00.321Z,1000.8
2018-03-31T23:21:00.316Z,1000.8
2018-03-31T23:26:00.343Z,1000.9
2018-03-31T23:31:00.511Z,1000.9
2018-03-31T23:36:00.693Z,1000.9
2018-03-31T23:41:00.687Z,1001
2018-03-31T23:46:00.837Z,1001
2018-03-31T23:51:00.849Z,1001
2018-03-31T23:56:00.873Z,1001.1
